sensor_id;sensor_type;location;lat;lon;timestamp;P1;durP1;ratioP1;P2;durP2;ratioP2
68377;SDS011;55322;48.146;11.516;2024-03-08T00:00:23;15.40;;;7.13;;
68377;SDS011;55322;48.146;11.516;2024-03-08T00:02:48;16.47;;;7.57;;
68377;SDS011;55322;48.146;11.516;2024-03-08T00:05:15;15.80;;;7.55;;
68377;SDS011;55322;48.146;11.516;2024-03-08T00:07:41;18.23;;;7.47;;
68377;SDS011;55322;48.146;11.516;2024-03-08T00:10:08;13.73;;;6.13;;
68377;SDS011;55322;48.146;11.516;2024-03-08T00:12:39;15.02;;;6.63;;
68377;SDS011;55322;48.146;11.516;2024-03-08T00:15:11;15.65;;;6.78;;
68377;SDS011;55322;48.146;11.516;2024-03-08T00:17:41;14.98;;;6.93;;
68377;SDS011;55322;48.146;11.516;2024-03-08T00:20:07;15.68;;;6.43;;
68377;SDS011;55322;48.146;11.516;2024-03-08T00:22:36;18.75;;;7.35;;
68377;SDS011;55322;48.146;11.516;2024-03-08T00:25:05;15.98;;;6.68;;
68377;SDS011;55322;48.146;11.516;2024-03-08T00:27:33;12.77;;;5.85;;
68377;SDS011;55322;48.146;11.516;2024-03-08T00:29:59;15.00;;;7.37;;
68377;SDS011;55322;48.146;11.516;2024-03-08T00:32:25;14.43;;;7.13;;
68377;SDS011;55322;48.146;11.516;2024-03-08T00:34:52;14.30;;;6.63;;
68377;SDS011;55322;48.146;11.516;2024-03-08T00:37:20;15.13;;;7.13;;
68377;SDS011;55322;48.146;11.516;2024-03-08T00:39:52;16.85;;;7.78;;
68377;SDS011;55322;48.146;11.516;2024-03-08T00:42:19;16.13;;;7.10;;
68377;SDS011;55322;48.146;11.516;2024-03-08T00:44:45;16.30;;;6.93;;
68377;SDS011;55322;48.146;11.516;2024-03-08T00:47:10;15.30;;;6.90;;
68377;SDS011;55322;48.146;11.516;2024-03-08T00:49:36;16.73;;;7.87;;
68377;SDS011;55322;48.146;11.516;2024-03-08T00:52:03;18.40;;;9.30;;
68377;SDS011;55322;48.146;11.516;2024-03-08T00:54:32;17.80;;;7.43;;
68377;SDS011;55322;48.146;11.516;2024-03-08T00:56:57;14.87;;;7.33;;
68377;SDS011;55322;48.146;11.516;2024-03-08T00:59:23;16.52;;;6.85;;
68377;SDS011;55322;48.146;11.516;2024-03-08T01:01:48;20.73;;;8.87;;
68377;SDS011;55322;48.146;11.516;2024-03-08T01:04:14;15.33;;;7.80;;
68377;SDS011;55322;48.146;11.516;2024-03-08T01:06:39;14.47;;;5.80;;
68377;SDS011;55322;48.146;11.516;2024-03-08T01:09:05;18.87;;;7.23;;
68377;SDS011;55322;48.146;11.516;2024-03-08T01:11:32;17.48;;;8.00;;
68377;SDS011;55322;48.146;11.516;2024-03-08T01:13:59;17.00;;;7.35;;
68377;SDS011;55322;48.146;11.516;2024-03-08T01:16:24;18.90;;;7.63;;
68377;SDS011;55322;48.146;11.516;2024-03-08T01:18:49;20.35;;;9.43;;
68377;SDS011;55322;48.146;11.516;2024-03-08T01:21:15;15.25;;;7.63;;
68377;SDS011;55322;48.146;11.516;2024-03-08T01:23:40;17.47;;;8.43;;
68377;SDS011;55322;48.146;11.516;2024-03-08T01:26:06;15.23;;;7.40;;
68377;SDS011;55322;48.146;11.516;2024-03-08T01:28:31;21.80;;;9.90;;
68377;SDS011;55322;48.146;11.516;2024-03-08T01:30:59;17.30;;;7.75;;
68377;SDS011;55322;48.146;11.516;2024-03-08T01:33:25;19.98;;;8.18;;
68377;SDS011;55322;48.146;11.516;2024-03-08T01:35:51;18.27;;;7.95;;
68377;SDS011;55322;48.146;11.516;2024-03-08T01:38:17;18.63;;;8.63;;
68377;SDS011;55322;48.146;11.516;2024-03-08T01:40:43;18.88;;;8.90;;
68377;SDS011;55322;48.146;11.516;2024-03-08T01:43:19;17.35;;;7.47;;
68377;SDS011;55322;48.146;11.516;2024-03-08T01:45:52;21.08;;;7.43;;
68377;SDS011;55322;48.146;11.516;2024-03-08T01:48:18;19.50;;;8.73;;
68377;SDS011;55322;48.146;11.516;2024-03-08T01:50:44;15.82;;;7.30;;
68377;SDS011;55322;48.146;11.516;2024-03-08T01:53:10;18.85;;;8.70;;
68377;SDS011;55322;48.146;11.516;2024-03-08T01:55:40;18.95;;;8.93;;
68377;SDS011;55322;48.146;11.516;2024-03-08T01:58:06;20.55;;;9.30;;
68377;SDS011;55322;48.146;11.516;2024-03-08T02:00:34;19.90;;;8.82;;
68377;SDS011;55322;48.146;11.516;2024-03-08T02:03:01;19.67;;;9.02;;
68377;SDS011;55322;48.146;11.516;2024-03-08T02:05:27;17.48;;;7.75;;
68377;SDS011;55322;48.146;11.516;2024-03-08T02:07:53;17.87;;;8.50;;
68377;SDS011;55322;48.146;11.516;2024-03-08T02:10:19;18.23;;;8.57;;
68377;SDS011;55322;48.146;11.516;2024-03-08T02:12:45;18.60;;;7.93;;
68377;SDS011;55322;48.146;11.516;2024-03-08T02:15:11;19.60;;;8.57;;
68377;SDS011;55322;48.146;11.516;2024-03-08T02:17:37;18.43;;;7.53;;
68377;SDS011;55322;48.146;11.516;2024-03-08T02:20:02;16.10;;;7.88;;
68377;SDS011;55322;48.146;11.516;2024-03-08T02:22:29;21.60;;;9.83;;
68377;SDS011;55322;48.146;11.516;2024-03-08T02:24:56;19.60;;;9.35;;
68377;SDS011;55322;48.146;11.516;2024-03-08T02:27:26;18.42;;;8.20;;
68377;SDS011;55322;48.146;11.516;2024-03-08T02:29:56;17.98;;;8.77;;
68377;SDS011;55322;48.146;11.516;2024-03-08T02:32:22;19.85;;;9.65;;
68377;SDS011;55322;48.146;11.516;2024-03-08T02:34:48;19.63;;;8.50;;
68377;SDS011;55322;48.146;11.516;2024-03-08T02:37:15;20.00;;;9.13;;
68377;SDS011;55322;48.146;11.516;2024-03-08T02:39:40;18.10;;;8.25;;
68377;SDS011;55322;48.146;11.516;2024-03-08T02:42:06;18.10;;;7.77;;
68377;SDS011;55322;48.146;11.516;2024-03-08T02:44:32;18.95;;;8.93;;
68377;SDS011;55322;48.146;11.516;2024-03-08T02:46:58;17.90;;;8.85;;
68377;SDS011;55322;48.146;11.516;2024-03-08T02:49:25;21.52;;;9.43;;
68377;SDS011;55322;48.146;11.516;2024-03-08T02:51:51;19.33;;;8.75;;
68377;SDS011;55322;48.146;11.516;2024-03-08T02:54:17;18.67;;;8.57;;
68377;SDS011;55322;48.146;11.516;2024-03-08T02:56:44;21.55;;;9.48;;
68377;SDS011;55322;48.146;11.516;2024-03-08T02:59:11;22.98;;;10.55;;
68377;SDS011;55322;48.146;11.516;2024-03-08T03:01:42;23.02;;;9.95;;
68377;SDS011;55322;48.146;11.516;2024-03-08T03:04:08;18.15;;;7.72;;
68377;SDS011;55322;48.146;11.516;2024-03-08T03:06:33;21.27;;;9.60;;
68377;SDS011;55322;48.146;11.516;2024-03-08T03:08:59;19.20;;;9.03;;
68377;SDS011;55322;48.146;11.516;2024-03-08T03:11:24;20.08;;;9.60;;
68377;SDS011;55322;48.146;11.516;2024-03-08T03:13:49;19.87;;;9.40;;
68377;SDS011;55322;48.146;11.516;2024-03-08T03:16:18;20.50;;;9.47;;
68377;SDS011;55322;48.146;11.516;2024-03-08T03:18:47;19.27;;;9.02;;
68377;SDS011;55322;48.146;11.516;2024-03-08T03:21:14;22.55;;;10.50;;
68377;SDS011;55322;48.146;11.516;2024-03-08T03:23:40;22.80;;;10.20;;
68377;SDS011;55322;48.146;11.516;2024-03-08T03:26:07;22.30;;;10.15;;
68377;SDS011;55322;48.146;11.516;2024-03-08T03:28:33;20.55;;;9.73;;
68377;SDS011;55322;48.146;11.516;2024-03-08T03:30:59;19.03;;;9.23;;
68377;SDS011;55322;48.146;11.516;2024-03-08T03:33:24;18.42;;;8.35;;
68377;SDS011;55322;48.146;11.516;2024-03-08T03:35:50;21.85;;;9.95;;
68377;SDS011;55322;48.146;11.516;2024-03-08T03:38:19;20.90;;;9.23;;
68377;SDS011;55322;48.146;11.516;2024-03-08T03:40:48;19.33;;;8.68;;
68377;SDS011;55322;48.146;11.516;2024-03-08T03:43:17;19.60;;;8.50;;
68377;SDS011;55322;48.146;11.516;2024-03-08T03:45:42;21.00;;;9.97;;
68377;SDS011;55322;48.146;11.516;2024-03-08T03:48:08;20.70;;;9.10;;
68377;SDS011;55322;48.146;11.516;2024-03-08T03:50:36;23.90;;;10.80;;
68377;SDS011;55322;48.146;11.516;2024-03-08T03:53:02;23.15;;;10.95;;
68377;SDS011;55322;48.146;11.516;2024-03-08T03:55:28;23.40;;;11.13;;
68377;SDS011;55322;48.146;11.516;2024-03-08T03:57:54;22.38;;;10.07;;
68377;SDS011;55322;48.146;11.516;2024-03-08T04:00:20;21.15;;;9.63;;
68377;SDS011;55322;48.146;11.516;2024-03-08T04:02:45;30.03;;;10.03;;
68377;SDS011;55322;48.146;11.516;2024-03-08T04:05:11;23.33;;;10.68;;
68377;SDS011;55322;48.146;11.516;2024-03-08T04:07:38;22.40;;;9.47;;
68377;SDS011;55322;48.146;11.516;2024-03-08T04:10:04;25.02;;;10.80;;
68377;SDS011;55322;48.146;11.516;2024-03-08T04:12:31;22.00;;;10.65;;
68377;SDS011;55322;48.146;11.516;2024-03-08T04:14:59;21.95;;;10.43;;
68377;SDS011;55322;48.146;11.516;2024-03-08T04:17:25;23.03;;;11.10;;
68377;SDS011;55322;48.146;11.516;2024-03-08T04:19:51;25.08;;;10.93;;
68377;SDS011;55322;48.146;11.516;2024-03-08T04:22:16;19.77;;;10.30;;
68377;SDS011;55322;48.146;11.516;2024-03-08T04:24:43;22.97;;;10.60;;
68377;SDS011;55322;48.146;11.516;2024-03-08T04:27:09;24.85;;;10.93;;
68377;SDS011;55322;48.146;11.516;2024-03-08T04:29:34;20.60;;;9.07;;
68377;SDS011;55322;48.146;11.516;2024-03-08T04:32:01;25.60;;;11.38;;
68377;SDS011;55322;48.146;11.516;2024-03-08T04:34:29;23.63;;;10.57;;
68377;SDS011;55322;48.146;11.516;2024-03-08T04:36:56;23.73;;;10.80;;
68377;SDS011;55322;48.146;11.516;2024-03-08T04:39:22;25.85;;;11.70;;
68377;SDS011;55322;48.146;11.516;2024-03-08T04:41:48;22.10;;;10.83;;
68377;SDS011;55322;48.146;11.516;2024-03-08T04:44:14;23.10;;;10.82;;
68377;SDS011;55322;48.146;11.516;2024-03-08T04:46:40;25.43;;;10.13;;
68377;SDS011;55322;48.146;11.516;2024-03-08T04:49:06;25.13;;;11.18;;
68377;SDS011;55322;48.146;11.516;2024-03-08T04:51:32;25.95;;;11.32;;
68377;SDS011;55322;48.146;11.516;2024-03-08T04:53:58;26.70;;;11.57;;
68377;SDS011;55322;48.146;11.516;2024-03-08T04:56:24;25.45;;;11.50;;
68377;SDS011;55322;48.146;11.516;2024-03-08T04:58:50;22.88;;;11.25;;
68377;SDS011;55322;48.146;11.516;2024-03-08T05:01:16;29.13;;;13.13;;
68377;SDS011;55322;48.146;11.516;2024-03-08T05:03:42;29.80;;;11.77;;
68377;SDS011;55322;48.146;11.516;2024-03-08T05:06:07;23.00;;;10.63;;
68377;SDS011;55322;48.146;11.516;2024-03-08T05:08:33;28.33;;;11.50;;
68377;SDS011;55322;48.146;11.516;2024-03-08T05:10:59;28.65;;;12.88;;
68377;SDS011;55322;48.146;11.516;2024-03-08T05:13:28;28.07;;;12.83;;
68377;SDS011;55322;48.146;11.516;2024-03-08T05:15:56;28.30;;;13.60;;
68377;SDS011;55322;48.146;11.516;2024-03-08T05:18:23;31.75;;;13.45;;
68377;SDS011;55322;48.146;11.516;2024-03-08T05:20:49;24.95;;;11.85;;
68377;SDS011;55322;48.146;11.516;2024-03-08T05:23:16;26.27;;;13.10;;
68377;SDS011;55322;48.146;11.516;2024-03-08T05:25:41;23.60;;;12.02;;
68377;SDS011;55322;48.146;11.516;2024-03-08T05:28:06;25.30;;;11.40;;
68377;SDS011;55322;48.146;11.516;2024-03-08T05:30:32;25.43;;;11.87;;
68377;SDS011;55322;48.146;11.516;2024-03-08T05:32:57;27.17;;;12.37;;
68377;SDS011;55322;48.146;11.516;2024-03-08T05:35:23;24.60;;;11.80;;
68377;SDS011;55322;48.146;11.516;2024-03-08T05:37:49;28.88;;;12.65;;
68377;SDS011;55322;48.146;11.516;2024-03-08T05:40:15;24.92;;;11.95;;
68377;SDS011;55322;48.146;11.516;2024-03-08T05:42:40;26.23;;;11.27;;
68377;SDS011;55322;48.146;11.516;2024-03-08T05:45:06;26.23;;;11.30;;
68377;SDS011;55322;48.146;11.516;2024-03-08T05:47:32;28.92;;;13.15;;
68377;SDS011;55322;48.146;11.516;2024-03-08T05:50:00;23.98;;;11.00;;
68377;SDS011;55322;48.146;11.516;2024-03-08T05:52:25;24.77;;;10.73;;
68377;SDS011;55322;48.146;11.516;2024-03-08T05:54:51;24.57;;;11.27;;
68377;SDS011;55322;48.146;11.516;2024-03-08T05:57:17;26.63;;;11.50;;
68377;SDS011;55322;48.146;11.516;2024-03-08T05:59:42;25.90;;;11.37;;
68377;SDS011;55322;48.146;11.516;2024-03-08T06:02:08;28.37;;;11.23;;
68377;SDS011;55322;48.146;11.516;2024-03-08T06:04:33;25.05;;;11.70;;
68377;SDS011;55322;48.146;11.516;2024-03-08T06:06:59;27.63;;;13.00;;
68377;SDS011;55322;48.146;11.516;2024-03-08T06:09:24;23.40;;;10.90;;
68377;SDS011;55322;48.146;11.516;2024-03-08T06:11:51;22.73;;;10.25;;
68377;SDS011;55322;48.146;11.516;2024-03-08T06:14:19;22.88;;;11.45;;
68377;SDS011;55322;48.146;11.516;2024-03-08T06:16:45;29.58;;;11.93;;
68377;SDS011;55322;48.146;11.516;2024-03-08T06:19:11;25.88;;;11.65;;
68377;SDS011;55322;48.146;11.516;2024-03-08T06:21:38;30.73;;;12.38;;
68377;SDS011;55322;48.146;11.516;2024-03-08T06:24:03;23.43;;;11.50;;
68377;SDS011;55322;48.146;11.516;2024-03-08T06:26:29;22.98;;;11.52;;
68377;SDS011;55322;48.146;11.516;2024-03-08T06:28:55;22.58;;;10.18;;
68377;SDS011;55322;48.146;11.516;2024-03-08T06:31:21;21.45;;;9.90;;
68377;SDS011;55322;48.146;11.516;2024-03-08T06:33:46;19.10;;;9.00;;
68377;SDS011;55322;48.146;11.516;2024-03-08T06:36:15;21.90;;;10.07;;
68377;SDS011;55322;48.146;11.516;2024-03-08T06:38:43;24.40;;;10.35;;
68377;SDS011;55322;48.146;11.516;2024-03-08T06:41:13;24.17;;;11.30;;
68377;SDS011;55322;48.146;11.516;2024-03-08T06:43:44;22.93;;;10.13;;
68377;SDS011;55322;48.146;11.516;2024-03-08T06:46:10;23.13;;;9.80;;
68377;SDS011;55322;48.146;11.516;2024-03-08T06:48:39;24.42;;;11.35;;
68377;SDS011;55322;48.146;11.516;2024-03-08T06:51:05;21.98;;;9.90;;
68377;SDS011;55322;48.146;11.516;2024-03-08T06:53:31;21.67;;;10.50;;
68377;SDS011;55322;48.146;11.516;2024-03-08T06:55:59;23.75;;;9.93;;
68377;SDS011;55322;48.146;11.516;2024-03-08T06:58:25;23.27;;;10.75;;
68377;SDS011;55322;48.146;11.516;2024-03-08T07:00:51;22.60;;;10.20;;
68377;SDS011;55322;48.146;11.516;2024-03-08T07:03:23;20.80;;;8.93;;
68377;SDS011;55322;48.146;11.516;2024-03-08T07:05:48;21.40;;;9.33;;
68377;SDS011;55322;48.146;11.516;2024-03-08T07:08:14;21.92;;;9.48;;
68377;SDS011;55322;48.146;11.516;2024-03-08T07:10:40;22.05;;;9.43;;
68377;SDS011;55322;48.146;11.516;2024-03-08T07:13:10;24.42;;;10.52;;
68377;SDS011;55322;48.146;11.516;2024-03-08T07:15:35;21.40;;;9.35;;
68377;SDS011;55322;48.146;11.516;2024-03-08T07:18:01;23.13;;;10.33;;
68377;SDS011;55322;48.146;11.516;2024-03-08T07:20:26;22.10;;;10.03;;
68377;SDS011;55322;48.146;11.516;2024-03-08T07:22:53;19.77;;;9.13;;
68377;SDS011;55322;48.146;11.516;2024-03-08T07:25:19;22.65;;;9.95;;
68377;SDS011;55322;48.146;11.516;2024-03-08T07:27:49;22.90;;;10.63;;
68377;SDS011;55322;48.146;11.516;2024-03-08T07:30:15;25.08;;;9.95;;
68377;SDS011;55322;48.146;11.516;2024-03-08T07:32:59;21.25;;;9.77;;
68377;SDS011;55322;48.146;11.516;2024-03-08T07:35:24;22.67;;;9.33;;
68377;SDS011;55322;48.146;11.516;2024-03-08T07:37:51;20.77;;;9.02;;
68377;SDS011;55322;48.146;11.516;2024-03-08T07:40:19;21.85;;;10.20;;
68377;SDS011;55322;48.146;11.516;2024-03-08T07:42:48;23.67;;;10.05;;
68377;SDS011;55322;48.146;11.516;2024-03-08T07:45:16;22.98;;;10.00;;
68377;SDS011;55322;48.146;11.516;2024-03-08T07:47:42;21.57;;;9.87;;
68377;SDS011;55322;48.146;11.516;2024-03-08T07:50:08;23.58;;;10.25;;
68377;SDS011;55322;48.146;11.516;2024-03-08T07:52:34;20.88;;;9.02;;
68377;SDS011;55322;48.146;11.516;2024-03-08T07:55:01;19.10;;;9.05;;
68377;SDS011;55322;48.146;11.516;2024-03-08T07:57:30;19.13;;;9.77;;
68377;SDS011;55322;48.146;11.516;2024-03-08T07:59:56;21.60;;;8.37;;
68377;SDS011;55322;48.146;11.516;2024-03-08T08:02:21;20.52;;;9.73;;
68377;SDS011;55322;48.146;11.516;2024-03-08T08:04:47;18.20;;;8.90;;
68377;SDS011;55322;48.146;11.516;2024-03-08T08:07:12;20.37;;;9.13;;
68377;SDS011;55322;48.146;11.516;2024-03-08T08:09:39;17.88;;;8.80;;
68377;SDS011;55322;48.146;11.516;2024-03-08T08:12:05;20.75;;;10.40;;
68377;SDS011;55322;48.146;11.516;2024-03-08T08:14:32;17.67;;;9.07;;
68377;SDS011;55322;48.146;11.516;2024-03-08T08:16:57;17.60;;;8.27;;
68377;SDS011;55322;48.146;11.516;2024-03-08T08:19:25;21.65;;;8.65;;
68377;SDS011;55322;48.146;11.516;2024-03-08T08:21:52;19.92;;;8.43;;
68377;SDS011;55322;48.146;11.516;2024-03-08T08:24:17;19.67;;;9.20;;
68377;SDS011;55322;48.146;11.516;2024-03-08T08:26:45;17.33;;;8.23;;
68377;SDS011;55322;48.146;11.516;2024-03-08T08:29:11;18.33;;;8.80;;
68377;SDS011;55322;48.146;11.516;2024-03-08T08:31:36;19.55;;;9.98;;
68377;SDS011;55322;48.146;11.516;2024-03-08T08:34:01;21.80;;;10.90;;
68377;SDS011;55322;48.146;11.516;2024-03-08T08:36:28;20.63;;;9.27;;
68377;SDS011;55322;48.146;11.516;2024-03-08T08:38:54;22.73;;;9.83;;
68377;SDS011;55322;48.146;11.516;2024-03-08T08:41:21;22.17;;;9.38;;
68377;SDS011;55322;48.146;11.516;2024-03-08T08:43:47;21.20;;;9.90;;
68377;SDS011;55322;48.146;11.516;2024-03-08T08:46:16;22.67;;;9.35;;
68377;SDS011;55322;48.146;11.516;2024-03-08T08:48:42;19.77;;;9.30;;
68377;SDS011;55322;48.146;11.516;2024-03-08T08:51:10;16.85;;;8.65;;
68377;SDS011;55322;48.146;11.516;2024-03-08T08:53:38;17.65;;;8.50;;
68377;SDS011;55322;48.146;11.516;2024-03-08T08:56:11;19.30;;;9.43;;
68377;SDS011;55322;48.146;11.516;2024-03-08T08:58:40;18.75;;;9.18;;
68377;SDS011;55322;48.146;11.516;2024-03-08T09:01:13;21.63;;;8.77;;
68377;SDS011;55322;48.146;11.516;2024-03-08T09:03:38;18.40;;;8.70;;
68377;SDS011;55322;48.146;11.516;2024-03-08T09:06:06;17.80;;;8.45;;
68377;SDS011;55322;48.146;11.516;2024-03-08T09:08:35;19.15;;;9.07;;
68377;SDS011;55322;48.146;11.516;2024-03-08T09:11:00;20.30;;;8.20;;
68377;SDS011;55322;48.146;11.516;2024-03-08T09:13:26;20.20;;;8.37;;
68377;SDS011;55322;48.146;11.516;2024-03-08T09:15:52;17.67;;;8.67;;
68377;SDS011;55322;48.146;11.516;2024-03-08T09:18:17;17.83;;;8.27;;
68377;SDS011;55322;48.146;11.516;2024-03-08T09:20:44;18.60;;;8.55;;
68377;SDS011;55322;48.146;11.516;2024-03-08T09:23:09;19.60;;;8.80;;
68377;SDS011;55322;48.146;11.516;2024-03-08T09:25:35;19.90;;;9.57;;
68377;SDS011;55322;48.146;11.516;2024-03-08T09:28:00;16.80;;;8.20;;
68377;SDS011;55322;48.146;11.516;2024-03-08T09:30:26;17.00;;;8.15;;
68377;SDS011;55322;48.146;11.516;2024-03-08T09:32:51;17.40;;;8.23;;
68377;SDS011;55322;48.146;11.516;2024-03-08T09:35:16;19.93;;;9.13;;
68377;SDS011;55322;48.146;11.516;2024-03-08T09:37:42;18.73;;;8.83;;
68377;SDS011;55322;48.146;11.516;2024-03-08T09:40:07;17.13;;;8.47;;
68377;SDS011;55322;48.146;11.516;2024-03-08T09:42:40;16.83;;;7.82;;
68377;SDS011;55322;48.146;11.516;2024-03-08T09:45:10;18.08;;;8.75;;
68377;SDS011;55322;48.146;11.516;2024-03-08T09:47:40;18.58;;;8.73;;
68377;SDS011;55322;48.146;11.516;2024-03-08T09:50:07;19.75;;;9.27;;
68377;SDS011;55322;48.146;11.516;2024-03-08T09:52:40;20.73;;;9.03;;
68377;SDS011;55322;48.146;11.516;2024-03-08T09:55:09;19.60;;;9.30;;
68377;SDS011;55322;48.146;11.516;2024-03-08T09:57:39;21.98;;;10.02;;
68377;SDS011;55322;48.146;11.516;2024-03-08T10:00:05;17.40;;;8.30;;
68377;SDS011;55322;48.146;11.516;2024-03-08T10:02:46;20.38;;;8.93;;
68377;SDS011;55322;48.146;11.516;2024-03-08T10:05:13;22.17;;;9.20;;
68377;SDS011;55322;48.146;11.516;2024-03-08T10:07:39;19.70;;;9.73;;
68377;SDS011;55322;48.146;11.516;2024-03-08T10:10:04;21.37;;;9.60;;
68377;SDS011;55322;48.146;11.516;2024-03-08T10:12:30;20.40;;;9.35;;
68377;SDS011;55322;48.146;11.516;2024-03-08T10:14:58;20.60;;;9.47;;
68377;SDS011;55322;48.146;11.516;2024-03-08T10:17:24;20.48;;;9.93;;
68377;SDS011;55322;48.146;11.516;2024-03-08T10:19:50;19.67;;;10.07;;
68377;SDS011;55322;48.146;11.516;2024-03-08T10:22:19;19.40;;;9.40;;
68377;SDS011;55322;48.146;11.516;2024-03-08T10:24:45;21.42;;;8.57;;
68377;SDS011;55322;48.146;11.516;2024-03-08T10:27:11;19.40;;;9.43;;
68377;SDS011;55322;48.146;11.516;2024-03-08T10:29:37;20.27;;;9.37;;
68377;SDS011;55322;48.146;11.516;2024-03-08T10:32:03;21.02;;;9.18;;
68377;SDS011;55322;48.146;11.516;2024-03-08T10:34:31;18.67;;;9.13;;
68377;SDS011;55322;48.146;11.516;2024-03-08T10:36:58;19.70;;;9.40;;
68377;SDS011;55322;48.146;11.516;2024-03-08T10:39:29;18.42;;;8.60;;
68377;SDS011;55322;48.146;11.516;2024-03-08T10:42:01;17.43;;;8.27;;
68377;SDS011;55322;48.146;11.516;2024-03-08T10:44:32;18.85;;;9.00;;
68377;SDS011;55322;48.146;11.516;2024-03-08T10:52:17;17.90;;;8.25;;
68377;SDS011;55322;48.146;11.516;2024-03-08T10:54:44;16.83;;;7.47;;
68377;SDS011;55322;48.146;11.516;2024-03-08T10:57:10;16.63;;;7.00;;
68377;SDS011;55322;48.146;11.516;2024-03-08T10:59:38;17.83;;;8.88;;
68377;SDS011;55322;48.146;11.516;2024-03-08T11:02:04;19.33;;;7.97;;
68377;SDS011;55322;48.146;11.516;2024-03-08T11:04:31;18.47;;;8.10;;
68377;SDS011;55322;48.146;11.516;2024-03-08T11:07:01;17.58;;;7.43;;
68377;SDS011;55322;48.146;11.516;2024-03-08T11:09:37;16.58;;;7.30;;
68377;SDS011;55322;48.146;11.516;2024-03-08T11:15:00;18.77;;;7.47;;
68377;SDS011;55322;48.146;11.516;2024-03-08T11:19:58;15.35;;;7.15;;
68377;SDS011;55322;48.146;11.516;2024-03-08T11:22:32;17.25;;;7.78;;
68377;SDS011;55322;48.146;11.516;2024-03-08T11:25:01;17.30;;;7.53;;
68377;SDS011;55322;48.146;11.516;2024-03-08T11:27:28;14.80;;;7.17;;
68377;SDS011;55322;48.146;11.516;2024-03-08T11:30:03;15.07;;;6.85;;
68377;SDS011;55322;48.146;11.516;2024-03-08T11:32:36;14.15;;;7.25;;
68377;SDS011;55322;48.146;11.516;2024-03-08T11:35:07;18.40;;;8.00;;
68377;SDS011;55322;48.146;11.516;2024-03-08T11:37:43;15.65;;;7.28;;
68377;SDS011;55322;48.146;11.516;2024-03-08T11:40:13;16.00;;;7.30;;
68377;SDS011;55322;48.146;11.516;2024-03-08T11:42:45;15.70;;;6.82;;
68377;SDS011;55322;48.146;11.516;2024-03-08T11:45:17;17.65;;;8.30;;
68377;SDS011;55322;48.146;11.516;2024-03-08T11:47:46;14.85;;;7.05;;
68377;SDS011;55322;48.146;11.516;2024-03-08T11:50:12;17.77;;;8.43;;
68377;SDS011;55322;48.146;11.516;2024-03-08T11:52:38;12.83;;;6.83;;
68377;SDS011;55322;48.146;11.516;2024-03-08T11:55:04;16.55;;;7.97;;
68377;SDS011;55322;48.146;11.516;2024-03-08T11:57:30;17.10;;;8.43;;
68377;SDS011;55322;48.146;11.516;2024-03-08T11:59:57;16.23;;;7.87;;
68377;SDS011;55322;48.146;11.516;2024-03-08T12:02:30;17.33;;;7.75;;
68377;SDS011;55322;48.146;11.516;2024-03-08T12:04:56;16.97;;;8.00;;
68377;SDS011;55322;48.146;11.516;2024-03-08T12:07:23;16.60;;;7.73;;
68377;SDS011;55322;48.146;11.516;2024-03-08T12:12:48;15.70;;;7.60;;
68377;SDS011;55322;48.146;11.516;2024-03-08T12:15:16;16.63;;;8.07;;
68377;SDS011;55322;48.146;11.516;2024-03-08T12:17:48;17.85;;;8.20;;
68377;SDS011;55322;48.146;11.516;2024-03-08T12:20:18;16.95;;;7.57;;
68377;SDS011;55322;48.146;11.516;2024-03-08T12:22:47;16.48;;;7.38;;
68377;SDS011;55322;48.146;11.516;2024-03-08T12:25:13;16.45;;;8.23;;
68377;SDS011;55322;48.146;11.516;2024-03-08T12:27:40;16.83;;;7.63;;
68377;SDS011;55322;48.146;11.516;2024-03-08T12:30:25;15.50;;;6.50;;
68377;SDS011;55322;48.146;11.516;2024-03-08T12:33:01;16.27;;;7.60;;
68377;SDS011;55322;48.146;11.516;2024-03-08T12:35:27;17.55;;;8.07;;
68377;SDS011;55322;48.146;11.516;2024-03-08T12:37:57;16.92;;;8.65;;
68377;SDS011;55322;48.146;11.516;2024-03-08T12:40:27;17.77;;;8.77;;
68377;SDS011;55322;48.146;11.516;2024-03-08T12:42:57;14.75;;;6.75;;
68377;SDS011;55322;48.146;11.516;2024-03-08T12:45:23;18.00;;;8.25;;
68377;SDS011;55322;48.146;11.516;2024-03-08T12:47:53;17.02;;;8.35;;
68377;SDS011;55322;48.146;11.516;2024-03-08T12:50:23;17.42;;;8.80;;
68377;SDS011;55322;48.146;11.516;2024-03-08T12:52:50;19.00;;;8.30;;
68377;SDS011;55322;48.146;11.516;2024-03-08T12:55:17;16.08;;;8.07;;
68377;SDS011;55322;48.146;11.516;2024-03-08T12:57:43;16.17;;;8.20;;
68377;SDS011;55322;48.146;11.516;2024-03-08T13:00:09;17.30;;;8.03;;
68377;SDS011;55322;48.146;11.516;2024-03-08T13:02:38;15.32;;;8.07;;
68377;SDS011;55322;48.146;11.516;2024-03-08T13:05:04;17.98;;;8.20;;
68377;SDS011;55322;48.146;11.516;2024-03-08T13:07:31;19.30;;;9.00;;
68377;SDS011;55322;48.146;11.516;2024-03-08T13:09:56;17.37;;;7.83;;
68377;SDS011;55322;48.146;11.516;2024-03-08T13:12:24;18.83;;;8.65;;
68377;SDS011;55322;48.146;11.516;2024-03-08T13:14:50;16.92;;;8.35;;
68377;SDS011;55322;48.146;11.516;2024-03-08T13:17:16;16.03;;;8.50;;
68377;SDS011;55322;48.146;11.516;2024-03-08T13:19:44;17.63;;;8.43;;
68377;SDS011;55322;48.146;11.516;2024-03-08T13:22:10;16.70;;;8.03;;
68377;SDS011;55322;48.146;11.516;2024-03-08T13:24:41;17.17;;;8.65;;
68377;SDS011;55322;48.146;11.516;2024-03-08T13:27:08;17.38;;;8.25;;
68377;SDS011;55322;48.146;11.516;2024-03-08T13:29:47;15.30;;;7.63;;
68377;SDS011;55322;48.146;11.516;2024-03-08T13:32:17;16.20;;;8.27;;
68377;SDS011;55322;48.146;11.516;2024-03-08T13:34:43;14.90;;;7.68;;
68377;SDS011;55322;48.146;11.516;2024-03-08T13:37:10;17.80;;;8.00;;
68377;SDS011;55322;48.146;11.516;2024-03-08T13:39:36;16.25;;;7.82;;
68377;SDS011;55322;48.146;11.516;2024-03-08T13:42:15;16.88;;;7.20;;
68377;SDS011;55322;48.146;11.516;2024-03-08T13:44:47;14.37;;;7.23;;
68377;SDS011;55322;48.146;11.516;2024-03-08T13:47:17;16.15;;;7.13;;
68377;SDS011;55322;48.146;11.516;2024-03-08T13:49:43;16.48;;;8.27;;
68377;SDS011;55322;48.146;11.516;2024-03-08T13:52:12;15.90;;;6.78;;
68377;SDS011;55322;48.146;11.516;2024-03-08T13:54:41;16.88;;;8.10;;
68377;SDS011;55322;48.146;11.516;2024-03-08T13:57:07;17.43;;;8.00;;
68377;SDS011;55322;48.146;11.516;2024-03-08T13:59:33;16.40;;;8.00;;
68377;SDS011;55322;48.146;11.516;2024-03-08T14:02:00;17.95;;;8.07;;
68377;SDS011;55322;48.146;11.516;2024-03-08T14:04:29;14.98;;;6.88;;
68377;SDS011;55322;48.146;11.516;2024-03-08T14:06:55;15.67;;;7.47;;
68377;SDS011;55322;48.146;11.516;2024-03-08T14:09:28;13.60;;;6.53;;
68377;SDS011;55322;48.146;11.516;2024-03-08T14:11:54;15.13;;;7.00;;
68377;SDS011;55322;48.146;11.516;2024-03-08T14:14:20;15.20;;;7.10;;
68377;SDS011;55322;48.146;11.516;2024-03-08T14:16:48;15.87;;;7.20;;
68377;SDS011;55322;48.146;11.516;2024-03-08T14:19:14;14.07;;;6.88;;
68377;SDS011;55322;48.146;11.516;2024-03-08T14:21:40;16.20;;;7.50;;
68377;SDS011;55322;48.146;11.516;2024-03-08T14:24:07;14.93;;;7.07;;
68377;SDS011;55322;48.146;11.516;2024-03-08T14:26:32;13.55;;;6.93;;
68377;SDS011;55322;48.146;11.516;2024-03-08T14:28:59;14.13;;;6.57;;
68377;SDS011;55322;48.146;11.516;2024-03-08T14:31:24;17.10;;;7.23;;